Salvador de Bahía, Brazil

2:59 PM -02 en Diciembre 11, 2017 (GMT -0200)
DEP. L. E. Magalhaes International | | Change Station

Alt 20 ft 12.90 °S, 38.33 °W | Updated -5 second ago

Nublado
Nublado
86 ° F
Sensación térmica 95 ° F
N
14
Viento Variable Viento desde NE

Hoy
Alta -- | Baja -- ° F
--% Posibilidad de precipitaciones
Ayer
Alta -- | Baja -- ° F
Precip. -- pul
Presión 29.77 pul
Visibilidad 6.2 Millas
Nubes Nubes dispersas 1700 ft
Nubes dispersas 7000 ft
Índice de calor 95 ° F
Punto de rocío 75 ° F
Humedad 70%
Precipitaciones 0.00 pul
Espesor de la nieve No disponible.
6:01 AM 6:54 PM
Cuarto menguante, 36% visible
METAR SBSV 111700Z 05012KT 9999 SCT017 SCT070 30/24 Q1008
Presión 29.77 pul
Visibilidad 6.2 Millas
Nubes Nubes dispersas 1700 ft
Nubes dispersas 7000 ft
Índice de calor 95 ° F
Punto de rocío 75 ° F
Humedad 70%
Precipitaciones 0.00 pul
Espesor de la nieve No disponible.
6:01 AM 6:54 PM
Cuarto menguante, 36% visible
METAR SBSV 111700Z 05012KT 9999 SCT017 SCT070 30/24 Q1008

Get Severe Weather Alerts

Thanks for signing up!

Be on the lookout for a verification email in your inbox.

You'll start receiving the daily forecast at 6 AM.

×

10-Day Weather Forecast

No radar image for this location.
×

Almanac

Astronomía

Dec. 11, 2017 Salida Puesta
Hora real
Crepúsculo civil
Crepúsculo náutico
Crepúsculo astronómico
Luna
Horas de luz
Horas de luz
Tomorrow will be .
, % of the Moon is Illuminated

Extremos de hoy

Máximos del país Bajas del país

Community

WunderPhotos

Category 6

Welcome to Category 6. This is the collective home for Weather Underground's featured writeups by Dr. Jeff Masters (right), Bob Henson (left), Chris Burt, and other regular contributors.

Nearby

Calidad del aire

  Calidad del aire Índice AQ Contaminante
Not available.

Grosos de nieve

Estación Profundido Altura

Actividad de terremotos

Ciudad Distance Mag. Tiempo y dato
Magnitud mínima muestra es 2,5.

Temperaturas de aguas costeras

Lugar Temperatura

Stations

Estaciones meteorológicas cercanas

Ubicación de la estación Temp. Vientos helados Punto de rocío Humedad Viento Precip. Alt Actualizado Tipo